createdAt,value
2023-04-18T00:00:11.926Z,15.00
2023-04-18T00:01:11.923Z,15.00
2023-04-18T00:02:12.008Z,14.80
2023-04-18T00:03:12.089Z,15.30
2023-04-18T00:04:12.063Z,15.70
2023-04-18T00:05:11.928Z,15.30
2023-04-18T00:06:11.854Z,15.50
2023-04-18T00:07:11.842Z,14.40
2023-04-18T00:08:11.837Z,14.90
2023-04-18T00:09:11.861Z,15.60
2023-04-18T00:10:11.804Z,15.20
2023-04-18T00:11:11.816Z,15.20
2023-04-18T00:12:11.786Z,16.00
2023-04-18T00:13:11.823Z,15.50
2023-04-18T00:14:12.177Z,15.50
2023-04-18T00:15:11.754Z,16.20
2023-04-18T00:16:11.749Z,16.40
2023-04-18T00:17:11.869Z,16.90
2023-04-18T00:18:11.715Z,17.20
2023-04-18T00:19:11.705Z,16.80
2023-04-18T00:20:11.695Z,16.40
2023-04-18T00:21:11.726Z,17.00
2023-04-18T00:22:11.700Z,17.20
2023-04-18T00:23:13.357Z,17.20
2023-04-18T00:24:11.694Z,17.10
2023-04-18T00:25:11.629Z,17.90
2023-04-18T00:26:11.656Z,17.90
2023-04-18T00:27:11.617Z,17.50
2023-04-18T00:28:11.640Z,17.80
2023-04-18T00:29:11.608Z,18.40
2023-04-18T00:30:11.596Z,17.20
2023-04-18T00:31:11.620Z,17.00
2023-04-18T00:32:11.568Z,17.20
2023-04-18T00:33:11.569Z,17.90
2023-04-18T00:34:11.712Z,16.70
2023-04-18T00:35:11.558Z,17.50
2023-04-18T00:36:11.529Z,16.90
2023-04-18T00:37:11.513Z,16.60
2023-04-18T00:38:11.551Z,17.70
2023-04-18T00:39:11.490Z,18.10
2023-04-18T00:40:11.470Z,17.90
2023-04-18T00:41:11.463Z,18.10
2023-04-18T00:42:11.461Z,17.80
2023-04-18T00:43:11.487Z,17.90
2023-04-18T00:44:11.583Z,19.10
2023-04-18T00:45:11.429Z,17.70
2023-04-18T00:46:11.512Z,17.40
2023-04-18T00:47:11.429Z,17.90
2023-04-18T00:48:11.431Z,17.60
2023-04-18T00:49:11.413Z,19.40
2023-04-18T00:50:11.400Z,19.50
2023-04-18T00:51:11.396Z,18.50
2023-04-18T00:52:11.379Z,18.20
2023-04-18T00:53:11.388Z,18.20
2023-04-18T00:54:11.548Z,18.30
2023-04-18T00:55:11.306Z,18.30
2023-04-18T00:56:11.324Z,18.20
2023-04-18T00:57:11.301Z,18.10
2023-04-18T00:58:11.292Z,17.30
2023-04-18T00:59:11.273Z,17.60
2023-04-18T01:00:11.268Z,18.30
2023-04-18T01:01:11.285Z,18.20
2023-04-18T01:02:11.281Z,16.80
2023-04-18T01:03:11.597Z,17.50
2023-04-18T01:04:11.334Z,17.50
2023-04-18T01:05:11.201Z,16.60
2023-04-18T01:06:11.217Z,16.80
2023-04-18T01:07:11.179Z,16.90
2023-04-18T01:08:11.179Z,16.30
2023-04-18T01:09:11.160Z,17.40
2023-04-18T01:10:11.190Z,16.50
2023-04-18T01:11:11.140Z,17.40
2023-04-18T01:12:11.122Z,17.40
2023-04-18T01:13:11.188Z,17.80
2023-04-18T01:14:11.291Z,17.70
2023-04-18T01:15:11.091Z,16.90
2023-04-18T01:16:11.112Z,17.70
2023-04-18T01:17:11.099Z,17.50
2023-04-18T01:18:11.073Z,16.90
2023-04-18T01:19:11.068Z,17.20
2023-04-18T01:20:11.058Z,17.10
2023-04-18T01:21:11.070Z,17.10
2023-04-18T01:22:11.024Z,17.80
2023-04-18T01:23:11.027Z,17.40
2023-04-18T01:24:11.189Z,16.40
2023-04-18T01:25:10.981Z,17.20
2023-04-18T01:26:11.000Z,17.90
2023-04-18T01:27:10.956Z,17.20
2023-04-18T01:28:10.957Z,17.40
2023-04-18T01:29:10.955Z,18.40
2023-04-18T01:30:10.959Z,16.90
2023-04-18T01:31:10.932Z,16.40
2023-04-18T01:32:10.910Z,17.40
2023-04-18T01:33:10.898Z,16.90
2023-04-18T01:34:10.959Z,17.30
2023-04-18T01:35:10.873Z,17.10
2023-04-18T01:36:10.857Z,18.00
2023-04-18T01:37:10.851Z,17.10
2023-04-18T01:38:10.861Z,16.80
2023-04-18T01:39:10.836Z,17.30
2023-04-18T01:40:10.850Z,18.40
2023-04-18T01:41:10.817Z,18.10
2023-04-18T01:42:10.805Z,16.80
2023-04-18T01:43:10.806Z,17.30
2023-04-18T01:44:10.813Z,17.30
2023-04-18T01:45:10.843Z,17.20
2023-04-18T01:46:10.791Z,17.60
2023-04-18T01:47:10.783Z,17.10
2023-04-18T01:48:10.739Z,17.70
2023-04-18T01:49:10.730Z,16.90
2023-04-18T01:50:10.793Z,17.70
2023-04-18T01:51:10.718Z,17.90
2023-04-18T01:52:10.685Z,18.10
2023-04-18T01:53:10.685Z,18.20
2023-04-18T01:54:10.689Z,17.50
2023-04-18T01:55:10.688Z,16.70
2023-04-18T01:56:10.660Z,16.20
2023-04-18T01:57:10.630Z,16.60
2023-04-18T01:58:10.628Z,16.50
2023-04-18T01:59:10.636Z,16.80
2023-04-18T02:00:10.626Z,17.50
2023-04-18T02:01:10.671Z,18.00
2023-04-18T02:02:10.694Z,16.80
2023-04-18T02:03:10.819Z,17.30
2023-04-18T02:04:10.668Z,16.90
2023-04-18T02:05:10.593Z,16.30
2023-04-18T02:06:10.529Z,16.20
2023-04-18T02:07:10.631Z,16.60
2023-04-18T02:08:10.558Z,16.10
2023-04-18T02:09:10.531Z,16.30
2023-04-18T02:10:10.507Z,15.90
2023-04-18T02:11:10.694Z,15.20
2023-04-18T02:12:10.533Z,16.40
2023-04-18T02:13:10.470Z,15.30
2023-04-18T02:14:10.466Z,14.00
2023-04-18T02:15:10.466Z,14.30
2023-04-18T02:16:10.474Z,14.70
2023-04-18T02:17:10.415Z,15.20
2023-04-18T02:18:10.429Z,14.20
2023-04-18T02:19:10.409Z,13.20
2023-04-18T02:20:10.379Z,13.70
2023-04-18T02:21:10.388Z,14.10
2023-04-18T02:22:10.368Z,12.20
2023-04-18T02:23:10.355Z,12.30
2023-04-18T02:24:10.389Z,12.20
2023-04-18T02:25:10.326Z,12.20
2023-04-18T02:26:10.354Z,11.90
2023-04-18T02:27:10.333Z,12.40
2023-04-18T02:28:10.291Z,12.40
2023-04-18T02:29:10.300Z,12.80
2023-04-18T02:30:10.316Z,12.70
2023-04-18T02:31:10.261Z,12.20
2023-04-18T02:32:10.309Z,11.70
2023-04-18T02:33:10.261Z,12.90
2023-04-18T02:34:10.242Z,12.50
2023-04-18T02:35:10.221Z,12.80
2023-04-18T02:36:10.217Z,12.70
2023-04-18T02:37:10.202Z,13.10
2023-04-18T02:38:10.189Z,13.80
2023-04-18T02:39:10.197Z,12.60
2023-04-18T02:40:10.210Z,13.20
2023-04-18T02:41:10.164Z,13.50
2023-04-18T02:42:10.158Z,14.20
2023-04-18T02:43:10.174Z,13.50
2023-04-18T02:44:10.136Z,14.10
2023-04-18T02:45:10.142Z,13.90
2023-04-18T02:46:10.245Z,14.10
2023-04-18T02:47:10.091Z,13.40
2023-04-18T02:48:10.124Z,13.90
2023-04-18T02:49:10.109Z,15.00
2023-04-18T02:50:10.078Z,14.50
2023-04-18T02:51:10.035Z,14.80
2023-04-18T02:52:10.059Z,14.70
2023-04-18T02:53:10.030Z,14.30
2023-04-18T02:54:10.021Z,14.20
2023-04-18T02:55:10.036Z,14.40
2023-04-18T02:56:10.010Z,15.10
2023-04-18T02:57:10.006Z,15.00
2023-04-18T02:58:09.991Z,15.20
2023-04-18T02:59:09.953Z,14.30
2023-04-18T03:00:09.956Z,15.40
2023-04-18T03:01:09.964Z,14.70
2023-04-18T03:02:09.988Z,16.20
2023-04-18T03:03:09.939Z,15.80
2023-04-18T03:04:09.907Z,15.90
2023-04-18T03:05:09.947Z,15.90
2023-04-18T03:06:09.894Z,15.70
2023-04-18T03:07:09.870Z,16.20
2023-04-18T03:08:09.887Z,15.40
2023-04-18T03:09:09.846Z,16.20
2023-04-18T03:10:09.834Z,14.70
2023-04-18T03:11:09.881Z,15.10
2023-04-18T03:12:09.816Z,15.10
2023-04-18T03:13:09.814Z,16.10
2023-04-18T03:14:09.812Z,16.20
2023-04-18T03:15:09.785Z,16.90
2023-04-18T03:16:09.837Z,17.10
2023-04-18T03:17:09.787Z,16.30
2023-04-18T03:18:09.742Z,16.40
2023-04-18T03:19:09.739Z,17.00
2023-04-18T03:20:09.767Z,18.20
2023-04-18T03:21:09.725Z,16.20
2023-04-18T03:22:09.715Z,18.00
2023-04-18T03:23:09.740Z,17.00
2023-04-18T03:24:11.959Z,17.70
2023-04-18T03:25:09.679Z,17.80
2023-04-18T03:26:09.808Z,16.90
2023-04-18T03:27:09.690Z,17.90
2023-04-18T03:28:09.642Z,17.00
2023-04-18T03:29:09.671Z,17.80
2023-04-18T03:30:09.616Z,18.20
2023-04-18T03:31:09.664Z,19.00
2023-04-18T03:32:09.619Z,18.20
2023-04-18T03:33:09.608Z,17.70
2023-04-18T03:34:09.579Z,19.70
2023-04-18T03:35:09.609Z,18.40
2023-04-18T03:36:09.557Z,19.30
2023-04-18T03:37:09.571Z,19.20
2023-04-18T03:38:09.524Z,17.30
2023-04-18T03:39:09.526Z,20.80
2023-04-18T03:40:09.510Z,19.70
2023-04-18T03:41:09.507Z,21.80
2023-04-18T03:42:09.671Z,21.40
2023-04-18T03:43:09.492Z,21.80
2023-04-18T03:44:09.462Z,21.70
2023-04-18T03:45:09.490Z,22.60
2023-04-18T03:46:09.458Z,20.50
2023-04-18T03:47:09.443Z,21.00
2023-04-18T03:48:09.448Z,20.60
2023-04-18T03:49:09.409Z,21.60
2023-04-18T03:50:09.392Z,21.00
2023-04-18T03:51:09.409Z,22.50
2023-04-18T03:52:09.391Z,23.40
2023-04-18T03:53:09.377Z,23.50
2023-04-18T03:54:09.365Z,23.50
2023-04-18T03:55:09.344Z,23.20
2023-04-18T03:56:09.330Z,23.80
2023-04-18T03:57:09.376Z,23.50
2023-04-18T03:58:09.317Z,24.90
2023-04-18T03:59:09.309Z,24.70
2023-04-18T04:00:09.338Z,23.90
2023-04-18T04:01:09.277Z,22.50
2023-04-18T04:02:09.282Z,24.70
2023-04-18T04:03:09.402Z,24.60
2023-04-18T04:04:09.535Z,25.80
2023-04-18T04:05:09.382Z,24.00
2023-04-18T04:06:09.225Z,25.50
2023-04-18T04:07:09.232Z,24.40
2023-04-18T04:08:09.202Z,25.60
2023-04-18T04:09:09.214Z,24.80
2023-04-18T04:10:09.199Z,25.10
2023-04-18T04:11:09.224Z,24.60
2023-04-18T04:12:09.172Z,25.00
2023-04-18T04:13:09.156Z,26.20
2023-04-18T04:14:09.154Z,25.20
2023-04-18T04:15:09.139Z,27.00
2023-04-18T04:16:09.243Z,26.80
2023-04-18T04:17:09.121Z,26.10
2023-04-18T04:18:09.164Z,25.70
2023-04-18T04:19:09.081Z,26.20
2023-04-18T04:20:09.284Z,26.50
2023-04-18T04:21:09.070Z,26.90
2023-04-18T04:22:09.343Z,25.50
2023-04-18T04:23:09.069Z,26.80
2023-04-18T04:24:09.045Z,27.10
2023-04-18T04:25:09.064Z,26.50
2023-04-18T04:26:09.007Z,25.80
2023-04-18T04:27:09.006Z,27.40
2023-04-18T04:28:09.006Z,25.90
2023-04-18T04:29:08.998Z,25.60
2023-04-18T04:30:09.558Z,26.70
2023-04-18T04:31:08.983Z,26.00
2023-04-18T04:32:09.032Z,25.20
2023-04-18T04:33:08.959Z,26.30
2023-04-18T04:34:09.000Z,26.00
2023-04-18T04:35:08.908Z,26.70
2023-04-18T04:36:08.916Z,26.60
2023-04-18T04:37:08.930Z,25.70
2023-04-18T04:38:08.879Z,26.10
2023-04-18T04:39:08.863Z,27.30
2023-04-18T04:40:08.905Z,26.60
2023-04-18T04:41:08.838Z,26.80
2023-04-18T04:42:08.826Z,25.90
2023-04-18T04:43:08.867Z,26.00
2023-04-18T04:44:08.808Z,27.10
2023-04-18T04:45:08.809Z,27.10
2023-04-18T04:46:08.848Z,26.70
2023-04-18T04:47:08.777Z,25.60
2023-04-18T04:48:08.768Z,26.00
2023-04-18T04:49:08.781Z,27.40
2023-04-18T04:50:08.801Z,26.30
2023-04-18T04:51:08.731Z,26.50
2023-04-18T04:52:08.730Z,25.20
2023-04-18T04:53:08.774Z,25.60
2023-04-18T04:54:08.690Z,25.30
2023-04-18T04:55:08.702Z,26.30
2023-04-18T04:56:08.713Z,25.40
2023-04-18T04:57:08.662Z,25.80
2023-04-18T04:58:08.654Z,26.60
2023-04-18T04:59:08.699Z,25.20
2023-04-18T05:00:08.651Z,24.80
2023-04-18T05:01:08.660Z,26.50
2023-04-18T05:02:08.722Z,24.00
2023-04-18T05:03:08.881Z,25.50
2023-04-18T05:04:08.666Z,25.40
2023-04-18T05:05:08.602Z,24.60
2023-04-18T05:06:08.599Z,24.20
2023-04-18T05:07:08.561Z,24.50
2023-04-18T05:08:08.581Z,25.00
2023-04-18T05:09:08.525Z,23.00
2023-04-18T05:10:08.535Z,23.90
2023-04-18T05:11:08.548Z,23.80
2023-04-18T05:12:08.523Z,24.20
2023-04-18T05:13:08.497Z,24.80
2023-04-18T05:14:08.502Z,23.60
2023-04-18T05:15:08.475Z,23.80
2023-04-18T05:16:08.491Z,23.80
2023-04-18T05:17:08.598Z,21.30
2023-04-18T05:18:08.506Z,22.60
2023-04-18T05:19:08.424Z,22.00
2023-04-18T05:20:08.428Z,21.90
2023-04-18T05:21:08.408Z,21.10
2023-04-18T05:22:08.421Z,21.00
2023-04-18T05:23:08.411Z,21.10
2023-04-18T05:24:08.369Z,21.00
2023-04-18T05:25:08.380Z,20.70
2023-04-18T05:26:08.426Z,21.00
2023-04-18T05:27:08.383Z,21.10
2023-04-18T05:28:08.340Z,20.50
2023-04-18T05:29:08.309Z,20.00
2023-04-18T05:30:08.306Z,19.90
2023-04-18T05:31:08.327Z,19.10
2023-04-18T05:32:08.280Z,19.70
2023-04-18T05:33:08.406Z,19.10
2023-04-18T05:34:08.261Z,18.10
2023-04-18T05:35:08.251Z,18.40
2023-04-18T05:36:08.317Z,18.20
2023-04-18T05:37:08.235Z,17.60
2023-04-18T05:38:08.217Z,19.60
2023-04-18T05:39:08.270Z,19.00
2023-04-18T05:40:08.187Z,18.10
2023-04-18T05:41:08.198Z,17.70
2023-04-18T05:42:08.222Z,18.20
2023-04-18T05:43:08.198Z,17.40
2023-04-18T05:44:08.153Z,17.60
2023-04-18T05:45:08.160Z,16.90
2023-04-18T05:46:08.173Z,17.60
2023-04-18T05:47:08.114Z,17.40
2023-04-18T05:48:08.279Z,17.80
2023-04-18T05:49:08.094Z,16.80
2023-04-18T05:50:08.090Z,16.30
2023-04-18T05:51:09.458Z,16.50
2023-04-18T05:52:08.068Z,16.50
2023-04-18T05:53:08.068Z,15.50
2023-04-18T05:54:08.072Z,16.00
2023-04-18T05:55:08.044Z,15.60
2023-04-18T05:56:08.038Z,16.30
2023-04-18T05:57:08.046Z,16.40
2023-04-18T05:58:07.992Z,19.40
2023-04-18T05:59:08.003Z,16.90
2023-04-18T06:00:08.003Z,16.00
2023-04-18T06:01:07.995Z,14.10
2023-04-18T06:02:08.005Z,16.00
2023-04-18T06:03:10.696Z,15.20
2023-04-18T06:04:08.100Z,16.10
2023-04-18T06:05:08.221Z,16.20
2023-04-18T06:06:07.949Z,15.60
2023-04-18T06:07:07.904Z,15.20
2023-04-18T06:08:07.902Z,15.10
2023-04-18T06:09:07.897Z,15.10
2023-04-18T06:10:07.869Z,14.90
2023-04-18T06:11:07.867Z,15.40
2023-04-18T06:12:07.947Z,15.90
2023-04-18T06:13:07.880Z,15.30
2023-04-18T06:14:07.905Z,14.30
2023-04-18T06:15:07.809Z,14.50
2023-04-18T06:16:07.873Z,14.30
2023-04-18T06:17:07.800Z,15.30
2023-04-18T06:18:07.855Z,15.00
2023-04-18T06:19:07.831Z,14.70
2023-04-18T06:20:07.786Z,14.40
2023-04-18T06:21:07.789Z,15.40
2023-04-18T06:22:07.754Z,14.70
2023-04-18T06:23:07.732Z,13.90
2023-04-18T06:24:07.742Z,15.90
2023-04-18T06:25:07.730Z,13.90
2023-04-18T06:26:07.767Z,14.70
2023-04-18T06:27:14.933Z,14.80
2023-04-18T06:28:08.698Z,14.50
2023-04-18T06:29:07.660Z,14.60
2023-04-18T06:30:07.652Z,14.50
2023-04-18T06:31:07.700Z,14.00
2023-04-18T06:32:07.650Z,14.90
2023-04-18T06:33:07.676Z,14.30
2023-04-18T06:34:07.652Z,14.90
2023-04-18T06:35:07.601Z,13.70
2023-04-18T06:36:07.620Z,14.30
2023-04-18T06:37:07.594Z,15.00
2023-04-18T06:38:07.587Z,13.80
2023-04-18T06:39:07.552Z,14.00
2023-04-18T06:40:07.591Z,14.60
2023-04-18T06:41:07.527Z,14.70
2023-04-18T06:42:07.510Z,13.90
2023-04-18T06:43:07.598Z,14.20
2023-04-18T06:44:07.506Z,13.90
2023-04-18T06:45:07.505Z,13.70
2023-04-18T06:46:07.522Z,14.00
2023-04-18T06:47:07.457Z,12.60
2023-04-18T06:48:07.510Z,13.40
2023-04-18T06:49:07.489Z,13.20
2023-04-18T06:50:07.425Z,13.50
2023-04-18T06:51:07.413Z,12.70
2023-04-18T06:52:07.438Z,13.10
2023-04-18T06:53:07.409Z,13.40
2023-04-18T06:54:07.397Z,12.90
2023-04-18T06:55:07.408Z,13.00
2023-04-18T06:56:07.357Z,13.40
2023-04-18T06:57:07.351Z,12.60
2023-04-18T06:58:07.333Z,12.20
2023-04-18T06:59:07.354Z,12.20
2023-04-18T07:00:07.330Z,12.30
2023-04-18T07:01:07.362Z,11.80
2023-04-18T07:02:07.365Z,12.60
2023-04-18T07:03:09.420Z,12.70
2023-04-18T07:04:07.376Z,12.80
2023-04-18T07:05:07.302Z,12.10
2023-04-18T07:06:07.254Z,12.20
2023-04-18T07:07:07.242Z,13.30
2023-04-18T07:08:07.271Z,14.00
2023-04-18T07:09:07.227Z,14.90
2023-04-18T07:10:07.207Z,13.50
2023-04-18T07:11:07.234Z,12.60
2023-04-18T07:12:07.188Z,12.80
2023-04-18T07:13:07.179Z,13.20
2023-04-18T07:14:07.187Z,12.80
2023-04-18T07:15:07.165Z,12.90
2023-04-18T07:16:07.138Z,11.90
2023-04-18T07:17:07.297Z,14.10
2023-04-18T07:18:07.156Z,13.50
2023-04-18T07:19:07.107Z,13.30
2023-04-18T07:20:07.151Z,13.40
2023-04-18T07:21:07.113Z,13.60
2023-04-18T07:22:07.077Z,13.00
2023-04-18T07:23:07.074Z,12.70
2023-04-18T07:24:07.060Z,12.90
2023-04-18T07:25:07.055Z,12.40
2023-04-18T07:26:07.045Z,11.40
2023-04-18T07:27:07.066Z,12.90
2023-04-18T07:28:07.003Z,12.70
2023-04-18T07:29:07.008Z,15.00
2023-04-18T07:30:07.084Z,14.50
2023-04-18T07:31:06.989Z,12.70
2023-04-18T07:32:08.396Z,11.90
2023-04-18T07:33:07.010Z,11.40
2023-04-18T07:34:06.961Z,11.40
2023-04-18T07:35:06.935Z,12.50
2023-04-18T07:36:06.975Z,12.30
2023-04-18T07:37:06.928Z,11.70
2023-04-18T07:38:06.900Z,11.40
2023-04-18T07:39:06.937Z,11.70
2023-04-18T07:40:06.895Z,11.70
2023-04-18T07:41:06.895Z,10.90
2023-04-18T07:42:06.900Z,10.90
2023-04-18T07:43:06.845Z,11.20
2023-04-18T07:44:06.841Z,11.20
2023-04-18T07:45:06.862Z,11.20
2023-04-18T07:46:06.834Z,10.90
2023-04-18T07:49:30.491Z,9.20
2023-04-18T07:50:30.480Z,9.70
2023-04-18T07:53:54.819Z,9.30
2023-04-18T07:54:54.805Z,10.10
2023-04-18T07:55:54.862Z,10.10
2023-04-18T07:56:54.813Z,9.90
2023-04-18T07:57:54.799Z,9.50
2023-04-18T07:58:54.809Z,9.60
2023-04-18T07:59:54.755Z,10.30
2023-04-18T08:00:54.744Z,9.60
2023-04-18T08:01:54.795Z,9.70
2023-04-18T08:02:54.891Z,10.00
2023-04-18T08:03:54.942Z,10.20
2023-04-18T08:04:54.998Z,9.70
2023-04-18T08:05:54.698Z,9.20
2023-04-18T08:06:55.635Z,8.90
2023-04-18T08:07:54.685Z,9.20
2023-04-18T08:08:54.662Z,8.70
2023-04-18T08:09:54.689Z,8.30
2023-04-18T08:10:54.636Z,7.90
2023-04-18T08:11:54.620Z,8.80
2023-04-18T08:12:54.634Z,8.80
2023-04-18T08:13:54.607Z,8.20
2023-04-18T08:14:54.723Z,9.10
2023-04-18T08:15:54.631Z,8.20
2023-04-18T08:16:54.569Z,8.70
2023-04-18T08:17:54.669Z,8.00
2023-04-18T08:18:54.548Z,8.10
2023-04-18T08:19:54.534Z,8.10
2023-04-18T08:20:54.534Z,8.40
2023-04-18T08:21:54.555Z,8.30
2023-04-18T08:23:05.164Z,8.10
2023-04-18T08:23:55.510Z,8.00
2023-04-18T08:25:04.325Z,8.70
2023-04-18T08:25:55.472Z,8.20
2023-04-18T08:26:54.464Z,8.60
2023-04-18T08:27:54.475Z,8.20
2023-04-18T08:28:54.447Z,8.50
2023-04-18T08:29:54.485Z,8.20
2023-04-18T08:30:54.416Z,8.00
2023-04-18T08:31:54.439Z,8.20
2023-04-18T08:32:54.444Z,8.60
2023-04-18T08:33:54.413Z,8.20
2023-04-18T08:34:54.382Z,8.70
2023-04-18T08:35:54.372Z,8.80
2023-04-18T08:36:54.354Z,8.10
2023-04-18T08:37:54.394Z,8.60
2023-04-18T08:38:54.333Z,9.20
2023-04-18T08:39:54.319Z,8.50
2023-04-18T08:40:54.306Z,8.60
2023-04-18T08:41:54.431Z,8.20
2023-04-18T08:42:54.364Z,8.50
2023-04-18T08:43:55.231Z,8.30
2023-04-18T08:44:54.266Z,7.90
2023-04-18T08:45:54.288Z,8.10
2023-04-18T08:46:54.309Z,8.20
2023-04-18T08:47:54.303Z,7.70
2023-04-18T08:49:49.698Z,8.10
2023-04-18T08:50:49.681Z,8.10
2023-04-18T08:51:49.665Z,8.00
2023-04-18T08:52:49.655Z,8.10
2023-04-18T08:53:49.690Z,8.10
2023-04-18T08:54:49.651Z,7.70
2023-04-18T08:55:49.663Z,7.70
2023-04-18T08:56:49.630Z,8.60
2023-04-18T08:57:49.611Z,8.20
2023-04-18T08:58:49.625Z,8.30
2023-04-18T08:59:50.954Z,8.10
2023-04-18T09:00:49.578Z,9.10
2023-04-18T09:01:49.575Z,8.50
2023-04-18T09:02:49.638Z,8.80
2023-04-18T09:03:49.570Z,8.60
2023-04-18T09:04:49.543Z,8.50
2023-04-18T09:05:49.532Z,9.10
2023-04-18T09:06:49.537Z,8.80
2023-04-18T09:07:49.554Z,8.60
2023-04-18T09:08:49.501Z,9.10
2023-04-18T09:09:49.489Z,8.80
2023-04-18T09:10:49.481Z,9.60
2023-04-18T09:11:49.454Z,12.50
2023-04-18T09:12:49.449Z,14.10
2023-04-18T09:13:49.452Z,12.60
2023-04-18T09:14:49.463Z,13.20
2023-04-18T09:15:49.420Z,10.90
2023-04-18T09:16:49.430Z,10.80
2023-04-18T09:17:49.495Z,9.90
2023-04-18T09:18:49.395Z,10.70
2023-04-18T09:19:49.375Z,11.60
2023-04-18T09:20:49.358Z,10.00
2023-04-18T09:21:49.347Z,11.60
2023-04-18T09:22:49.354Z,10.70
2023-04-18T09:23:49.345Z,10.70
2023-04-18T09:24:49.332Z,11.20
2023-04-18T09:25:49.324Z,12.10
2023-04-18T09:26:49.295Z,11.30
2023-04-18T09:27:49.314Z,11.00
2023-04-18T09:28:49.277Z,11.00
2023-04-18T09:29:49.285Z,10.30
2023-04-18T09:30:49.290Z,12.60
2023-04-18T09:31:49.244Z,12.40
2023-04-18T09:32:49.258Z,10.20
2023-04-18T09:33:49.240Z,10.90
2023-04-18T09:34:49.209Z,11.80
2023-04-18T09:35:49.202Z,11.80
2023-04-18T09:36:49.240Z,10.60
2023-04-18T09:37:49.192Z,11.70
2023-04-18T09:38:49.198Z,10.50
2023-04-18T09:39:49.186Z,10.00
2023-04-18T09:40:49.150Z,10.20
2023-04-18T09:41:49.131Z,10.30
2023-04-18T09:42:49.152Z,10.00
2023-04-18T09:43:49.136Z,10.10
2023-04-18T09:44:49.116Z,10.50
2023-04-18T09:45:49.153Z,12.30
2023-04-18T09:46:49.129Z,10.80
2023-04-18T09:47:49.125Z,11.40
2023-04-18T09:48:49.063Z,11.70
2023-04-18T09:49:49.069Z,11.20
2023-04-18T09:50:49.044Z,11.10
2023-04-18T09:51:49.026Z,10.70
2023-04-18T09:52:49.021Z,10.50
2023-04-18T09:53:49.022Z,10.30
2023-04-18T09:54:49.005Z,10.80
2023-04-18T09:55:48.982Z,10.30
2023-04-18T09:56:48.977Z,10.70
2023-04-18T09:57:48.977Z,13.40
2023-04-18T09:58:48.961Z,11.80
2023-04-18T09:59:48.939Z,11.60
2023-04-18T10:00:48.929Z,10.80
2023-04-18T10:01:48.939Z,11.90
2023-04-18T10:02:49.014Z,12.50
2023-04-18T10:03:48.986Z,13.30
2023-04-18T10:04:48.998Z,12.00
2023-04-18T10:05:49.045Z,11.40
2023-04-18T10:06:48.875Z,11.10
2023-04-18T10:07:48.848Z,10.90
2023-04-18T10:08:48.917Z,10.50
2023-04-18T10:09:48.835Z,10.60
2023-04-18T10:10:48.828Z,11.10
2023-04-18T10:11:48.809Z,10.60
2023-04-18T10:12:48.811Z,10.40
2023-04-18T10:13:48.815Z,11.10
2023-04-18T10:14:48.782Z,11.00
2023-04-18T10:15:50.295Z,11.30
2023-04-18T10:16:50.496Z,11.10
2023-04-18T10:18:02.818Z,10.40
2023-04-18T10:18:49.733Z,11.30
2023-04-18T10:19:48.747Z,10.60
2023-04-18T10:20:48.728Z,10.90
2023-04-18T10:21:48.701Z,11.30
2023-04-18T10:22:48.720Z,10.40
2023-04-18T10:23:48.709Z,10.90
2023-04-18T10:24:48.689Z,11.00
2023-04-18T10:25:48.673Z,10.60
2023-04-18T10:26:48.645Z,10.00
2023-04-18T10:27:48.751Z,10.40
2023-04-18T10:28:48.685Z,11.00
2023-04-18T10:29:48.658Z,9.70
2023-04-18T10:30:48.613Z,11.10
2023-04-18T10:31:48.693Z,11.50
2023-04-18T10:32:48.613Z,11.80
2023-04-18T10:34:00.623Z,11.50
2023-04-18T10:34:49.595Z,10.90
2023-04-18T10:35:48.551Z,11.10
2023-04-18T10:36:48.545Z,11.60
2023-04-18T10:37:48.532Z,11.20
2023-04-18T10:38:48.557Z,11.00
2023-04-18T10:39:48.506Z,10.80
2023-04-18T10:40:48.498Z,10.90
2023-04-18T10:41:49.463Z,11.10
2023-04-18T10:42:48.535Z,11.00
2023-04-18T10:43:48.486Z,10.10
2023-04-18T10:44:48.459Z,10.40
2023-04-18T10:45:48.441Z,10.50
2023-04-18T10:46:48.469Z,9.90
2023-04-18T10:47:48.512Z,11.70
2023-04-18T10:48:48.431Z,11.30
2023-04-18T10:49:48.409Z,11.30
2023-04-18T10:50:48.524Z,11.10
2023-04-18T10:51:48.422Z,11.80
2023-04-18T10:52:48.374Z,10.60
2023-04-18T10:53:48.390Z,10.90
2023-04-18T10:54:48.349Z,10.10
2023-04-18T10:55:48.343Z,10.20
2023-04-18T10:56:48.365Z,10.10
2023-04-18T10:57:48.320Z,10.30
2023-04-18T10:58:48.327Z,10.90
2023-04-18T10:59:48.305Z,10.40
2023-04-18T11:00:48.299Z,10.80
2023-04-18T11:01:48.338Z,10.90
2023-04-18T11:02:48.465Z,12.50
2023-04-18T11:03:48.337Z,13.40
2023-04-18T11:04:48.267Z,11.70
2023-04-18T11:05:48.226Z,10.10
2023-04-18T11:06:48.224Z,10.00
2023-04-18T11:07:48.223Z,10.40
2023-04-18T11:08:48.236Z,9.60
2023-04-18T11:09:48.207Z,9.50
2023-04-18T11:10:48.181Z,9.50
2023-04-18T11:11:48.163Z,9.70
2023-04-18T11:12:48.160Z,9.90
2023-04-18T11:13:48.185Z,10.40
2023-04-18T11:14:48.139Z,9.70
2023-04-18T11:15:48.122Z,9.50
2023-04-18T11:16:48.134Z,9.90
2023-04-18T11:17:48.183Z,9.80
2023-04-18T11:18:48.113Z,9.80
2023-04-18T11:19:48.283Z,9.90
2023-04-18T11:20:48.065Z,10.00
2023-04-18T11:21:48.065Z,10.00
2023-04-18T11:22:48.087Z,9.70
2023-04-18T11:23:48.051Z,9.80
2023-04-18T11:24:48.064Z,9.90
2023-04-18T11:25:48.037Z,9.60
2023-04-18T11:26:48.012Z,9.50
2023-04-18T11:27:47.998Z,8.70
2023-04-18T11:28:47.983Z,9.10
2023-04-18T11:29:47.982Z,9.40
2023-04-18T11:30:47.989Z,8.70
2023-04-18T11:31:47.980Z,10.00
2023-04-18T11:32:47.963Z,10.30
2023-04-18T11:33:47.926Z,10.20
2023-04-18T11:34:47.921Z,10.50
2023-04-18T11:35:47.935Z,10.20
2023-04-18T11:36:47.898Z,8.90
2023-04-18T11:37:47.888Z,9.70
2023-04-18T11:38:47.877Z,9.40
2023-04-18T11:39:47.878Z,10.30
2023-04-18T11:40:47.925Z,9.50
2023-04-18T11:41:47.859Z,9.30
2023-04-18T11:42:47.843Z,9.80
2023-04-18T11:43:47.821Z,8.70
2023-04-18T11:44:47.862Z,8.80
2023-04-18T11:45:47.861Z,9.10
2023-04-18T11:46:47.808Z,10.10
2023-04-18T11:47:47.969Z,11.10
2023-04-18T11:48:47.766Z,8.60
2023-04-18T11:49:47.786Z,10.10
2023-04-18T11:50:47.751Z,10.30
2023-04-18T11:51:47.740Z,10.00
2023-04-18T11:52:47.752Z,9.60
2023-04-18T11:53:47.726Z,9.80
2023-04-18T11:54:47.708Z,10.50
2023-04-18T11:55:47.716Z,10.30
2023-04-18T11:56:47.679Z,9.70
2023-04-18T11:57:47.694Z,9.60
2023-04-18T11:58:47.666Z,10.00
2023-04-18T11:59:47.652Z,11.20
2023-04-18T12:00:47.651Z,12.60
2023-04-18T12:01:47.885Z,12.80
2023-04-18T12:02:47.727Z,12.20
2023-04-18T12:03:47.789Z,11.10
2023-04-18T12:04:47.787Z,11.50
2023-04-18T12:05:47.675Z,12.30
2023-04-18T12:06:47.611Z,11.60
2023-04-18T12:07:47.577Z,11.60
2023-04-18T12:08:47.581Z,11.20
2023-04-18T12:09:47.545Z,12.00
2023-04-18T12:10:47.556Z,11.80
2023-04-18T12:11:47.553Z,11.70
2023-04-18T12:12:47.517Z,11.20
2023-04-18T12:13:47.504Z,11.90
2023-04-18T12:14:47.487Z,10.80
2023-04-18T12:15:47.532Z,11.60
2023-04-18T12:16:47.485Z,11.70
2023-04-18T12:17:47.512Z,10.60
2023-04-18T12:18:47.439Z,11.20
2023-04-18T12:19:49.694Z,11.00
2023-04-18T12:20:47.455Z,12.20
2023-04-18T12:21:47.433Z,14.20
2023-04-18T12:22:47.422Z,11.10
2023-04-18T12:23:47.413Z,11.30
2023-04-18T12:24:47.382Z,11.40
2023-04-18T12:25:47.378Z,11.50
2023-04-18T12:26:47.360Z,11.30
2023-04-18T12:27:47.399Z,11.40
2023-04-18T12:28:47.334Z,10.70
2023-04-18T12:29:47.344Z,10.80
2023-04-18T12:30:47.342Z,10.20
2023-04-18T12:31:47.377Z,10.30
2023-04-18T12:32:47.388Z,10.90
2023-04-18T12:33:47.280Z,11.20
2023-04-18T12:34:47.270Z,10.60
2023-04-18T12:35:49.079Z,11.10
2023-04-18T12:36:47.255Z,10.70
2023-04-18T12:37:47.276Z,10.30
2023-04-18T12:38:47.311Z,10.30
2023-04-18T12:39:47.216Z,10.50
2023-04-18T12:40:47.216Z,10.70
2023-04-18T12:41:49.663Z,10.60
2023-04-18T12:42:47.187Z,10.80
2023-04-18T12:43:47.196Z,11.10
2023-04-18T12:44:47.999Z,9.70
2023-04-18T12:45:47.169Z,10.60
2023-04-18T12:46:47.186Z,11.00
2023-04-18T12:47:47.185Z,10.90
2023-04-18T12:48:47.141Z,10.60
2023-04-18T12:49:47.105Z,11.10
2023-04-18T12:50:47.104Z,11.10
2023-04-18T12:51:47.103Z,10.80
2023-04-18T12:52:47.081Z,11.10
2023-04-18T12:53:47.086Z,10.90
2023-04-18T12:54:47.055Z,10.50
2023-04-18T12:55:47.080Z,10.70
2023-04-18T12:56:47.040Z,11.10
2023-04-18T12:57:47.020Z,11.00
2023-04-18T12:58:47.017Z,11.30
2023-04-18T12:59:47.073Z,10.40
2023-04-18T13:00:47.071Z,10.60
2023-04-18T13:01:47.032Z,10.90